sensor_id;sensor_type;location;lat;lon;timestamp;P1;durP1;ratioP1;P2;durP2;ratioP2
18526;SDS011;9393;42.158;24.748;2022-12-18T00:02:21;47.50;;;31.33;;
18526;SDS011;9393;42.158;24.748;2022-12-18T00:05:25;45.63;;;29.33;;
18526;SDS011;9393;42.158;24.748;2022-12-18T00:08:30;48.40;;;30.63;;
18526;SDS011;9393;42.158;24.748;2022-12-18T00:11:34;57.50;;;35.57;;
18526;SDS011;9393;42.158;24.748;2022-12-18T00:14:38;134.70;;;74.53;;
18526;SDS011;9393;42.158;24.748;2022-12-18T00:17:42;188.40;;;105.20;;
18526;SDS011;9393;42.158;24.748;2022-12-18T00:20:46;97.83;;;57.00;;
18526;SDS011;9393;42.158;24.748;2022-12-18T00:23:51;43.47;;;29.17;;
18526;SDS011;9393;42.158;24.748;2022-12-18T00:26:56;43.87;;;28.10;;
18526;SDS011;9393;42.158;24.748;2022-12-18T00:30:00;46.50;;;28.47;;
18526;SDS011;9393;42.158;24.748;2022-12-18T00:33:03;45.60;;;29.20;;
18526;SDS011;9393;42.158;24.748;2022-12-18T00:36:09;40.60;;;27.27;;
18526;SDS011;9393;42.158;24.748;2022-12-18T00:39:16;43.20;;;26.97;;
18526;SDS011;9393;42.158;24.748;2022-12-18T00:42:20;48.80;;;29.77;;
18526;SDS011;9393;42.158;24.748;2022-12-18T00:45:41;50.70;;;30.50;;
18526;SDS011;9393;42.158;24.748;2022-12-18T00:48:46;39.93;;;24.80;;
18526;SDS011;9393;42.158;24.748;2022-12-18T00:51:50;39.40;;;26.57;;
18526;SDS011;9393;42.158;24.748;2022-12-18T00:54:58;45.53;;;26.57;;
18526;SDS011;9393;42.158;24.748;2022-12-18T00:58:07;41.40;;;26.93;;
18526;SDS011;9393;42.158;24.748;2022-12-18T01:01:11;41.57;;;28.50;;
18526;SDS011;9393;42.158;24.748;2022-12-18T01:04:15;42.93;;;28.07;;
18526;SDS011;9393;42.158;24.748;2022-12-18T01:07:19;50.40;;;29.90;;
18526;SDS011;9393;42.158;24.748;2022-12-18T01:10:25;44.50;;;28.27;;
18526;SDS011;9393;42.158;24.748;2022-12-18T01:13:31;46.33;;;29.30;;
18526;SDS011;9393;42.158;24.748;2022-12-18T01:16:35;49.23;;;29.13;;
18526;SDS011;9393;42.158;24.748;2022-12-18T01:19:39;47.53;;;30.10;;
18526;SDS011;9393;42.158;24.748;2022-12-18T01:22:44;50.53;;;30.33;;
18526;SDS011;9393;42.158;24.748;2022-12-18T01:25:49;53.07;;;29.77;;
18526;SDS011;9393;42.158;24.748;2022-12-18T01:28:53;43.87;;;28.00;;
18526;SDS011;9393;42.158;24.748;2022-12-18T01:31:58;49.63;;;30.60;;
18526;SDS011;9393;42.158;24.748;2022-12-18T01:35:04;47.53;;;30.83;;
18526;SDS011;9393;42.158;24.748;2022-12-18T01:38:09;45.60;;;29.63;;
18526;SDS011;9393;42.158;24.748;2022-12-18T01:41:16;44.67;;;29.87;;
18526;SDS011;9393;42.158;24.748;2022-12-18T01:48:02;45.07;;;28.47;;
18526;SDS011;9393;42.158;24.748;2022-12-18T01:51:11;41.43;;;27.33;;
18526;SDS011;9393;42.158;24.748;2022-12-18T01:54:15;44.77;;;28.10;;
18526;SDS011;9393;42.158;24.748;2022-12-18T01:57:21;41.83;;;26.90;;
18526;SDS011;9393;42.158;24.748;2022-12-18T02:00:26;37.87;;;26.57;;
18526;SDS011;9393;42.158;24.748;2022-12-18T02:03:31;38.73;;;26.13;;
18526;SDS011;9393;42.158;24.748;2022-12-18T02:06:36;37.40;;;24.30;;
18526;SDS011;9393;42.158;24.748;2022-12-18T02:09:45;32.97;;;22.60;;
18526;SDS011;9393;42.158;24.748;2022-12-18T02:12:55;34.87;;;21.70;;
18526;SDS011;9393;42.158;24.748;2022-12-18T02:16:02;32.83;;;22.13;;
18526;SDS011;9393;42.158;24.748;2022-12-18T02:19:18;29.17;;;19.87;;
18526;SDS011;9393;42.158;24.748;2022-12-18T02:22:39;31.03;;;20.47;;
18526;SDS011;9393;42.158;24.748;2022-12-18T02:25:57;28.27;;;18.30;;
18526;SDS011;9393;42.158;24.748;2022-12-18T02:29:11;29.60;;;19.07;;
18526;SDS011;9393;42.158;24.748;2022-12-18T02:32:20;26.13;;;18.07;;
18526;SDS011;9393;42.158;24.748;2022-12-18T02:35:29;28.30;;;18.87;;
18526;SDS011;9393;42.158;24.748;2022-12-18T02:38:35;28.47;;;18.10;;
18526;SDS011;9393;42.158;24.748;2022-12-18T02:41:47;28.13;;;18.97;;
18526;SDS011;9393;42.158;24.748;2022-12-18T02:44:56;26.53;;;17.90;;
18526;SDS011;9393;42.158;24.748;2022-12-18T02:48:00;27.53;;;18.63;;
18526;SDS011;9393;42.158;24.748;2022-12-18T02:51:08;23.07;;;16.20;;
18526;SDS011;9393;42.158;24.748;2022-12-18T02:54:29;26.90;;;17.10;;
18526;SDS011;9393;42.158;24.748;2022-12-18T02:57:44;24.67;;;16.43;;
18526;SDS011;9393;42.158;24.748;2022-12-18T03:00:58;22.63;;;15.90;;
18526;SDS011;9393;42.158;24.748;2022-12-18T03:04:07;24.90;;;17.13;;
18526;SDS011;9393;42.158;24.748;2022-12-18T03:07:17;27.27;;;17.53;;
18526;SDS011;9393;42.158;24.748;2022-12-18T03:10:29;31.10;;;18.10;;
18526;SDS011;9393;42.158;24.748;2022-12-18T03:13:39;27.53;;;17.93;;
18526;SDS011;9393;42.158;24.748;2022-12-18T03:16:49;27.43;;;19.37;;
18526;SDS011;9393;42.158;24.748;2022-12-18T03:19:56;26.87;;;18.13;;
18526;SDS011;9393;42.158;24.748;2022-12-18T03:23:08;25.60;;;17.30;;
18526;SDS011;9393;42.158;24.748;2022-12-18T03:26:21;25.03;;;17.33;;
18526;SDS011;9393;42.158;24.748;2022-12-18T03:29:34;23.43;;;17.30;;
18526;SDS011;9393;42.158;24.748;2022-12-18T03:32:44;24.60;;;18.87;;
18526;SDS011;9393;42.158;24.748;2022-12-18T03:35:57;24.03;;;17.87;;
18526;SDS011;9393;42.158;24.748;2022-12-18T03:39:02;22.70;;;16.20;;
18526;SDS011;9393;42.158;24.748;2022-12-18T03:42:11;25.67;;;15.77;;
18526;SDS011;9393;42.158;24.748;2022-12-18T03:45:26;20.90;;;14.87;;
18526;SDS011;9393;42.158;24.748;2022-12-18T03:48:38;22.33;;;13.80;;
18526;SDS011;9393;42.158;24.748;2022-12-18T03:51:52;21.83;;;14.03;;
18526;SDS011;9393;42.158;24.748;2022-12-18T03:55:01;18.87;;;12.83;;
18526;SDS011;9393;42.158;24.748;2022-12-18T03:58:09;20.70;;;13.33;;
18526;SDS011;9393;42.158;24.748;2022-12-18T04:01:45;20.03;;;11.80;;
18526;SDS011;9393;42.158;24.748;2022-12-18T04:04:51;21.33;;;12.53;;
18526;SDS011;9393;42.158;24.748;2022-12-18T04:07:56;18.50;;;12.03;;
18526;SDS011;9393;42.158;24.748;2022-12-18T04:11:02;18.93;;;12.23;;
18526;SDS011;9393;42.158;24.748;2022-12-18T04:14:07;17.13;;;11.93;;
18526;SDS011;9393;42.158;24.748;2022-12-18T04:17:19;17.37;;;11.13;;
18526;SDS011;9393;42.158;24.748;2022-12-18T04:20:25;18.33;;;11.73;;
18526;SDS011;9393;42.158;24.748;2022-12-18T04:23:29;16.37;;;10.80;;
18526;SDS011;9393;42.158;24.748;2022-12-18T04:26:33;15.00;;;10.63;;
18526;SDS011;9393;42.158;24.748;2022-12-18T04:29:57;14.47;;;10.17;;
18526;SDS011;9393;42.158;24.748;2022-12-18T04:33:02;15.23;;;9.90;;
18526;SDS011;9393;42.158;24.748;2022-12-18T04:36:07;14.37;;;9.63;;
18526;SDS011;9393;42.158;24.748;2022-12-18T04:39:11;13.90;;;9.40;;
18526;SDS011;9393;42.158;24.748;2022-12-18T04:42:16;12.07;;;7.90;;
18526;SDS011;9393;42.158;24.748;2022-12-18T04:45:19;12.00;;;7.87;;
18526;SDS011;9393;42.158;24.748;2022-12-18T04:48:25;9.23;;;5.63;;
18526;SDS011;9393;42.158;24.748;2022-12-18T04:51:28;8.60;;;5.90;;
18526;SDS011;9393;42.158;24.748;2022-12-18T04:54:32;10.43;;;6.60;;
18526;SDS011;9393;42.158;24.748;2022-12-18T04:57:36;11.87;;;6.83;;
18526;SDS011;9393;42.158;24.748;2022-12-18T05:00:39;9.10;;;4.87;;
18526;SDS011;9393;42.158;24.748;2022-12-18T05:03:45;6.07;;;4.60;;
18526;SDS011;9393;42.158;24.748;2022-12-18T05:06:49;7.10;;;5.10;;
18526;SDS011;9393;42.158;24.748;2022-12-18T05:09:52;7.37;;;5.47;;
18526;SDS011;9393;42.158;24.748;2022-12-18T05:12:56;8.07;;;4.83;;
18526;SDS011;9393;42.158;24.748;2022-12-18T05:16:03;6.60;;;4.73;;
18526;SDS011;9393;42.158;24.748;2022-12-18T05:19:09;9.47;;;5.70;;
18526;SDS011;9393;42.158;24.748;2022-12-18T05:22:13;11.73;;;5.07;;
18526;SDS011;9393;42.158;24.748;2022-12-18T05:25:17;6.83;;;4.87;;
18526;SDS011;9393;42.158;24.748;2022-12-18T05:28:21;6.00;;;4.37;;
18526;SDS011;9393;42.158;24.748;2022-12-18T05:31:27;8.80;;;5.40;;
18526;SDS011;9393;42.158;24.748;2022-12-18T05:34:39;7.20;;;5.00;;
18526;SDS011;9393;42.158;24.748;2022-12-18T05:37:43;8.77;;;5.83;;
18526;SDS011;9393;42.158;24.748;2022-12-18T05:40:47;7.67;;;5.30;;
18526;SDS011;9393;42.158;24.748;2022-12-18T05:43:51;9.17;;;5.73;;
18526;SDS011;9393;42.158;24.748;2022-12-18T05:46:55;10.80;;;6.00;;
18526;SDS011;9393;42.158;24.748;2022-12-18T05:50:00;9.50;;;5.73;;
18526;SDS011;9393;42.158;24.748;2022-12-18T05:53:04;8.33;;;5.63;;
18526;SDS011;9393;42.158;24.748;2022-12-18T05:56:09;6.80;;;5.03;;
18526;SDS011;9393;42.158;24.748;2022-12-18T05:59:14;6.27;;;4.83;;
18526;SDS011;9393;42.158;24.748;2022-12-18T06:02:18;7.00;;;5.30;;
18526;SDS011;9393;42.158;24.748;2022-12-18T06:05:25;9.10;;;5.93;;
18526;SDS011;9393;42.158;24.748;2022-12-18T06:08:28;7.63;;;5.17;;
18526;SDS011;9393;42.158;24.748;2022-12-18T06:11:32;7.40;;;4.93;;
18526;SDS011;9393;42.158;24.748;2022-12-18T06:14:37;8.17;;;5.23;;
18526;SDS011;9393;42.158;24.748;2022-12-18T06:17:41;9.30;;;5.97;;
18526;SDS011;9393;42.158;24.748;2022-12-18T06:20:51;7.97;;;5.40;;
18526;SDS011;9393;42.158;24.748;2022-12-18T06:23:59;9.33;;;6.33;;
18526;SDS011;9393;42.158;24.748;2022-12-18T06:27:03;9.87;;;6.33;;
18526;SDS011;9393;42.158;24.748;2022-12-18T06:30:07;8.40;;;5.57;;
18526;SDS011;9393;42.158;24.748;2022-12-18T06:33:13;7.67;;;5.10;;
18526;SDS011;9393;42.158;24.748;2022-12-18T06:36:18;11.40;;;6.03;;
18526;SDS011;9393;42.158;24.748;2022-12-18T06:39:22;9.80;;;6.37;;
18526;SDS011;9393;42.158;24.748;2022-12-18T06:42:26;10.33;;;5.50;;
18526;SDS011;9393;42.158;24.748;2022-12-18T06:45:32;8.43;;;6.10;;
18526;SDS011;9393;42.158;24.748;2022-12-18T06:48:36;9.93;;;6.10;;
18526;SDS011;9393;42.158;24.748;2022-12-18T06:51:41;9.50;;;5.60;;
18526;SDS011;9393;42.158;24.748;2022-12-18T06:54:46;7.87;;;5.40;;
18526;SDS011;9393;42.158;24.748;2022-12-18T06:57:50;9.70;;;5.47;;
18526;SDS011;9393;42.158;24.748;2022-12-18T07:00:54;11.73;;;6.63;;
18526;SDS011;9393;42.158;24.748;2022-12-18T07:04:03;10.70;;;6.83;;
18526;SDS011;9393;42.158;24.748;2022-12-18T07:07:08;9.87;;;6.80;;
18526;SDS011;9393;42.158;24.748;2022-12-18T07:10:12;9.17;;;6.10;;
18526;SDS011;9393;42.158;24.748;2022-12-18T07:13:16;11.33;;;6.57;;
18526;SDS011;9393;42.158;24.748;2022-12-18T07:16:20;9.87;;;6.13;;
18526;SDS011;9393;42.158;24.748;2022-12-18T07:19:26;10.27;;;6.17;;
18526;SDS011;9393;42.158;24.748;2022-12-18T07:22:33;12.30;;;6.20;;
18526;SDS011;9393;42.158;24.748;2022-12-18T07:25:37;9.90;;;6.30;;
18526;SDS011;9393;42.158;24.748;2022-12-18T07:28:41;10.47;;;6.40;;
18526;SDS011;9393;42.158;24.748;2022-12-18T07:31:45;10.90;;;5.40;;
18526;SDS011;9393;42.158;24.748;2022-12-18T07:34:49;9.87;;;5.70;;
18526;SDS011;9393;42.158;24.748;2022-12-18T07:37:54;9.97;;;5.13;;
18526;SDS011;9393;42.158;24.748;2022-12-18T07:41:00;8.30;;;5.37;;
18526;SDS011;9393;42.158;24.748;2022-12-18T07:44:08;11.30;;;6.17;;
18526;SDS011;9393;42.158;24.748;2022-12-18T07:47:12;11.53;;;5.90;;
18526;SDS011;9393;42.158;24.748;2022-12-18T07:50:16;10.43;;;6.70;;
18526;SDS011;9393;42.158;24.748;2022-12-18T07:53:22;11.73;;;6.63;;
18526;SDS011;9393;42.158;24.748;2022-12-18T07:56:25;10.63;;;6.50;;
18526;SDS011;9393;42.158;24.748;2022-12-18T07:59:32;9.10;;;5.93;;
18526;SDS011;9393;42.158;24.748;2022-12-18T08:02:36;8.23;;;5.70;;
18526;SDS011;9393;42.158;24.748;2022-12-18T08:05:40;9.90;;;6.00;;
18526;SDS011;9393;42.158;24.748;2022-12-18T08:08:45;10.87;;;6.60;;
18526;SDS011;9393;42.158;24.748;2022-12-18T08:11:49;9.87;;;6.23;;
18526;SDS011;9393;42.158;24.748;2022-12-18T08:14:53;9.10;;;6.87;;
18526;SDS011;9393;42.158;24.748;2022-12-18T08:17:57;11.27;;;7.57;;
18526;SDS011;9393;42.158;24.748;2022-12-18T08:21:07;9.00;;;6.00;;
18526;SDS011;9393;42.158;24.748;2022-12-18T08:24:13;10.23;;;7.10;;
18526;SDS011;9393;42.158;24.748;2022-12-18T08:27:17;9.30;;;6.40;;
18526;SDS011;9393;42.158;24.748;2022-12-18T08:30:30;9.17;;;6.50;;
18526;SDS011;9393;42.158;24.748;2022-12-18T08:33:34;6.57;;;4.07;;
18526;SDS011;9393;42.158;24.748;2022-12-18T08:36:40;9.57;;;6.33;;
18526;SDS011;9393;42.158;24.748;2022-12-18T08:39:45;10.80;;;6.23;;
18526;SDS011;9393;42.158;24.748;2022-12-18T08:42:49;10.50;;;6.60;;
18526;SDS011;9393;42.158;24.748;2022-12-18T08:46:10;10.47;;;6.83;;
18526;SDS011;9393;42.158;24.748;2022-12-18T08:49:14;11.80;;;6.60;;
18526;SDS011;9393;42.158;24.748;2022-12-18T08:52:18;12.60;;;7.37;;
18526;SDS011;9393;42.158;24.748;2022-12-18T08:55:23;11.07;;;6.63;;
18526;SDS011;9393;42.158;24.748;2022-12-18T08:58:28;11.13;;;7.60;;
18526;SDS011;9393;42.158;24.748;2022-12-18T09:01:32;11.47;;;7.27;;
18526;SDS011;9393;42.158;24.748;2022-12-18T09:04:36;14.00;;;7.73;;
18526;SDS011;9393;42.158;24.748;2022-12-18T09:07:41;12.67;;;7.20;;
18526;SDS011;9393;42.158;24.748;2022-12-18T09:10:48;10.87;;;7.27;;
18526;SDS011;9393;42.158;24.748;2022-12-18T09:13:53;15.87;;;7.03;;
18526;SDS011;9393;42.158;24.748;2022-12-18T09:16:57;12.90;;;7.77;;
18526;SDS011;9393;42.158;24.748;2022-12-18T09:20:01;10.40;;;7.40;;
18526;SDS011;9393;42.158;24.748;2022-12-18T09:23:06;11.93;;;7.90;;
18526;SDS011;9393;42.158;24.748;2022-12-18T09:26:12;12.50;;;7.93;;
18526;SDS011;9393;42.158;24.748;2022-12-18T09:29:15;11.90;;;8.20;;
18526;SDS011;9393;42.158;24.748;2022-12-18T09:32:19;15.53;;;8.27;;
18526;SDS011;9393;42.158;24.748;2022-12-18T09:35:23;12.53;;;8.07;;
18526;SDS011;9393;42.158;24.748;2022-12-18T09:38:27;14.73;;;10.03;;
18526;SDS011;9393;42.158;24.748;2022-12-18T09:41:40;15.63;;;8.70;;
18526;SDS011;9393;42.158;24.748;2022-12-18T09:44:49;25.20;;;12.57;;
18526;SDS011;9393;42.158;24.748;2022-12-18T09:47:53;16.90;;;11.23;;
18526;SDS011;9393;42.158;24.748;2022-12-18T09:50:59;14.03;;;8.43;;
18526;SDS011;9393;42.158;24.748;2022-12-18T09:54:07;19.47;;;10.10;;
18526;SDS011;9393;42.158;24.748;2022-12-18T09:57:18;17.63;;;9.47;;
18526;SDS011;9393;42.158;24.748;2022-12-18T10:00:24;16.13;;;8.23;;
18526;SDS011;9393;42.158;24.748;2022-12-18T10:03:29;13.83;;;7.97;;
18526;SDS011;9393;42.158;24.748;2022-12-18T10:06:35;13.20;;;7.93;;
18526;SDS011;9393;42.158;24.748;2022-12-18T10:09:43;14.17;;;8.57;;
18526;SDS011;9393;42.158;24.748;2022-12-18T10:12:59;10.37;;;6.90;;
18526;SDS011;9393;42.158;24.748;2022-12-18T10:16:10;14.03;;;7.73;;
18526;SDS011;9393;42.158;24.748;2022-12-18T10:19:23;14.80;;;8.53;;
18526;SDS011;9393;42.158;24.748;2022-12-18T10:22:39;13.63;;;8.60;;
18526;SDS011;9393;42.158;24.748;2022-12-18T10:25:55;12.53;;;7.87;;
18526;SDS011;9393;42.158;24.748;2022-12-18T10:29:09;12.93;;;7.47;;
18526;SDS011;9393;42.158;24.748;2022-12-18T10:32:16;13.60;;;8.03;;
18526;SDS011;9393;42.158;24.748;2022-12-18T10:35:22;16.17;;;9.57;;
18526;SDS011;9393;42.158;24.748;2022-12-18T10:38:29;12.67;;;7.30;;
18526;SDS011;9393;42.158;24.748;2022-12-18T10:41:34;16.90;;;11.13;;
18526;SDS011;9393;42.158;24.748;2022-12-18T10:44:39;25.33;;;14.97;;
18526;SDS011;9393;42.158;24.748;2022-12-18T10:47:46;30.20;;;19.50;;
18526;SDS011;9393;42.158;24.748;2022-12-18T10:50:52;13.77;;;9.40;;
18526;SDS011;9393;42.158;24.748;2022-12-18T10:54:14;14.20;;;11.23;;
18526;SDS011;9393;42.158;24.748;2022-12-18T10:57:31;15.60;;;12.60;;
18526;SDS011;9393;42.158;24.748;2022-12-18T11:00:39;25.67;;;23.10;;
18526;SDS011;9393;42.158;24.748;2022-12-18T11:03:44;20.47;;;15.83;;
18526;SDS011;9393;42.158;24.748;2022-12-18T11:06:53;17.23;;;12.03;;
18526;SDS011;9393;42.158;24.748;2022-12-18T11:10:00;36.00;;;25.30;;
18526;SDS011;9393;42.158;24.748;2022-12-18T11:13:11;48.23;;;38.73;;
18526;SDS011;9393;42.158;24.748;2022-12-18T11:16:21;21.30;;;15.80;;
18526;SDS011;9393;42.158;24.748;2022-12-18T11:19:30;15.47;;;12.53;;
18526;SDS011;9393;42.158;24.748;2022-12-18T11:22:36;21.33;;;10.13;;
18526;SDS011;9393;42.158;24.748;2022-12-18T11:25:41;21.13;;;12.87;;
18526;SDS011;9393;42.158;24.748;2022-12-18T11:29:07;16.03;;;11.10;;
18526;SDS011;9393;42.158;24.748;2022-12-18T11:32:21;15.70;;;10.33;;
18526;SDS011;9393;42.158;24.748;2022-12-18T11:35:35;403.33;;;189.23;;
18526;SDS011;9393;42.158;24.748;2022-12-18T11:38:47;169.17;;;103.50;;
18526;SDS011;9393;42.158;24.748;2022-12-18T11:41:56;44.33;;;34.30;;
18526;SDS011;9393;42.158;24.748;2022-12-18T11:45:24;30.10;;;23.17;;
18526;SDS011;9393;42.158;24.748;2022-12-18T11:48:36;27.10;;;18.53;;
18526;SDS011;9393;42.158;24.748;2022-12-18T11:51:48;28.33;;;22.57;;
18526;SDS011;9393;42.158;24.748;2022-12-18T11:54:58;25.70;;;14.60;;
18526;SDS011;9393;42.158;24.748;2022-12-18T11:58:07;24.47;;;14.83;;
18526;SDS011;9393;42.158;24.748;2022-12-18T12:01:23;29.30;;;17.13;;
18526;SDS011;9393;42.158;24.748;2022-12-18T12:04:48;31.70;;;19.63;;
18526;SDS011;9393;42.158;24.748;2022-12-18T12:08:01;30.37;;;25.17;;
18526;SDS011;9393;42.158;24.748;2022-12-18T12:11:15;24.17;;;15.93;;
18526;SDS011;9393;42.158;24.748;2022-12-18T12:14:36;31.80;;;22.73;;
18526;SDS011;9393;42.158;24.748;2022-12-18T12:17:53;32.13;;;20.30;;
18526;SDS011;9393;42.158;24.748;2022-12-18T12:21:04;25.57;;;17.87;;
18526;SDS011;9393;42.158;24.748;2022-12-18T12:24:21;23.90;;;16.00;;
18526;SDS011;9393;42.158;24.748;2022-12-18T12:27:36;30.30;;;20.30;;
18526;SDS011;9393;42.158;24.748;2022-12-18T12:30:52;18.80;;;11.70;;
18526;SDS011;9393;42.158;24.748;2022-12-18T12:34:06;13.87;;;9.30;;
18526;SDS011;9393;42.158;24.748;2022-12-18T12:37:22;16.10;;;10.73;;
18526;SDS011;9393;42.158;24.748;2022-12-18T12:40:34;17.57;;;10.37;;
18526;SDS011;9393;42.158;24.748;2022-12-18T12:44:04;30.83;;;17.97;;
18526;SDS011;9393;42.158;24.748;2022-12-18T12:47:13;30.77;;;21.53;;
18526;SDS011;9393;42.158;24.748;2022-12-18T12:50:20;20.53;;;13.87;;
18526;SDS011;9393;42.158;24.748;2022-12-18T12:53:28;15.47;;;9.90;;
18526;SDS011;9393;42.158;24.748;2022-12-18T12:56:44;15.03;;;10.37;;
18526;SDS011;9393;42.158;24.748;2022-12-18T12:59:56;19.13;;;13.20;;
18526;SDS011;9393;42.158;24.748;2022-12-18T13:03:07;15.00;;;9.97;;
18526;SDS011;9393;42.158;24.748;2022-12-18T13:06:23;20.33;;;12.53;;
18526;SDS011;9393;42.158;24.748;2022-12-18T13:13:50;24.73;;;15.43;;
18526;SDS011;9393;42.158;24.748;2022-12-18T13:20:37;21.20;;;13.60;;
18526;SDS011;9393;42.158;24.748;2022-12-18T13:23:42;23.93;;;15.63;;
18526;SDS011;9393;42.158;24.748;2022-12-18T13:26:49;26.67;;;16.50;;
18526;SDS011;9393;42.158;24.748;2022-12-18T13:29:53;35.07;;;19.93;;
18526;SDS011;9393;42.158;24.748;2022-12-18T13:33:05;31.33;;;20.00;;
18526;SDS011;9393;42.158;24.748;2022-12-18T13:40:53;16.50;;;11.67;;
18526;SDS011;9393;42.158;24.748;2022-12-18T13:44:09;19.53;;;12.57;;
18526;SDS011;9393;42.158;24.748;2022-12-18T13:47:24;19.50;;;11.37;;
18526;SDS011;9393;42.158;24.748;2022-12-18T13:50:31;20.90;;;12.73;;
18526;SDS011;9393;42.158;24.748;2022-12-18T13:53:37;17.00;;;10.33;;
18526;SDS011;9393;42.158;24.748;2022-12-18T13:56:47;17.23;;;10.80;;
18526;SDS011;9393;42.158;24.748;2022-12-18T13:59:53;17.67;;;10.90;;
18526;SDS011;9393;42.158;24.748;2022-12-18T14:02:57;23.70;;;10.23;;
18526;SDS011;9393;42.158;24.748;2022-12-18T14:06:03;16.73;;;10.23;;
18526;SDS011;9393;42.158;24.748;2022-12-18T14:09:12;24.47;;;15.63;;
18526;SDS011;9393;42.158;24.748;2022-12-18T14:12:22;38.70;;;25.90;;
18526;SDS011;9393;42.158;24.748;2022-12-18T14:15:48;18.77;;;13.33;;
18526;SDS011;9393;42.158;24.748;2022-12-18T14:18:55;17.97;;;11.03;;
18526;SDS011;9393;42.158;24.748;2022-12-18T14:22:17;28.13;;;18.27;;
18526;SDS011;9393;42.158;24.748;2022-12-18T14:25:22;17.30;;;10.43;;
18526;SDS011;9393;42.158;24.748;2022-12-18T14:28:28;20.30;;;14.17;;
18526;SDS011;9393;42.158;24.748;2022-12-18T14:31:34;20.47;;;12.30;;
18526;SDS011;9393;42.158;24.748;2022-12-18T14:34:38;17.17;;;11.27;;
18526;SDS011;9393;42.158;24.748;2022-12-18T14:37:41;24.70;;;15.17;;
18526;SDS011;9393;42.158;24.748;2022-12-18T14:40:45;18.73;;;11.40;;
18526;SDS011;9393;42.158;24.748;2022-12-18T14:43:50;23.90;;;14.97;;
18526;SDS011;9393;42.158;24.748;2022-12-18T14:46:57;19.13;;;11.70;;
18526;SDS011;9393;42.158;24.748;2022-12-18T14:50:00;18.23;;;12.00;;
18526;SDS011;9393;42.158;24.748;2022-12-18T14:53:04;27.83;;;19.53;;
18526;SDS011;9393;42.158;24.748;2022-12-18T14:56:15;18.07;;;11.33;;
18526;SDS011;9393;42.158;24.748;2022-12-18T14:59:21;17.70;;;11.33;;
18526;SDS011;9393;42.158;24.748;2022-12-18T15:02:27;16.90;;;11.10;;
18526;SDS011;9393;42.158;24.748;2022-12-18T15:05:32;47.07;;;29.60;;
18526;SDS011;9393;42.158;24.748;2022-12-18T15:08:36;21.10;;;13.03;;
18526;SDS011;9393;42.158;24.748;2022-12-18T15:11:44;18.67;;;11.57;;
18526;SDS011;9393;42.158;24.748;2022-12-18T15:14:49;34.37;;;21.80;;
18526;SDS011;9393;42.158;24.748;2022-12-18T15:18:00;31.57;;;21.30;;
18526;SDS011;9393;42.158;24.748;2022-12-18T15:21:07;22.03;;;13.50;;
18526;SDS011;9393;42.158;24.748;2022-12-18T15:24:16;23.97;;;12.57;;
18526;SDS011;9393;42.158;24.748;2022-12-18T15:27:22;21.53;;;12.30;;
18526;SDS011;9393;42.158;24.748;2022-12-18T15:30:28;58.00;;;31.47;;
18526;SDS011;9393;42.158;24.748;2022-12-18T15:33:35;23.53;;;13.53;;
18526;SDS011;9393;42.158;24.748;2022-12-18T15:36:41;24.53;;;16.00;;
18526;SDS011;9393;42.158;24.748;2022-12-18T15:39:45;26.23;;;16.43;;
18526;SDS011;9393;42.158;24.748;2022-12-18T15:42:50;26.60;;;16.23;;
18526;SDS011;9393;42.158;24.748;2022-12-18T15:46:14;28.30;;;17.13;;
18526;SDS011;9393;42.158;24.748;2022-12-18T15:49:22;33.03;;;18.47;;
18526;SDS011;9393;42.158;24.748;2022-12-18T15:52:25;26.90;;;16.17;;
18526;SDS011;9393;42.158;24.748;2022-12-18T15:55:32;25.03;;;15.07;;
18526;SDS011;9393;42.158;24.748;2022-12-18T15:59:01;24.03;;;13.93;;
18526;SDS011;9393;42.158;24.748;2022-12-18T16:02:07;31.80;;;17.27;;
18526;SDS011;9393;42.158;24.748;2022-12-18T16:05:21;23.47;;;14.47;;
18526;SDS011;9393;42.158;24.748;2022-12-18T16:08:26;20.50;;;13.10;;
18526;SDS011;9393;42.158;24.748;2022-12-18T16:11:31;24.57;;;14.40;;
18526;SDS011;9393;42.158;24.748;2022-12-18T16:14:42;23.03;;;15.03;;
18526;SDS011;9393;42.158;24.748;2022-12-18T16:17:46;23.70;;;13.33;;
18526;SDS011;9393;42.158;24.748;2022-12-18T16:20:52;22.33;;;13.23;;
18526;SDS011;9393;42.158;24.748;2022-12-18T16:23:56;19.00;;;12.63;;
18526;SDS011;9393;42.158;24.748;2022-12-18T16:27:00;18.03;;;10.73;;
18526;SDS011;9393;42.158;24.748;2022-12-18T16:30:04;18.97;;;11.50;;
18526;SDS011;9393;42.158;24.748;2022-12-18T16:33:09;20.60;;;11.87;;
18526;SDS011;9393;42.158;24.748;2022-12-18T16:36:15;17.83;;;10.50;;
18526;SDS011;9393;42.158;24.748;2022-12-18T16:39:19;18.57;;;11.37;;
18526;SDS011;9393;42.158;24.748;2022-12-18T16:42:25;19.63;;;12.30;;
18526;SDS011;9393;42.158;24.748;2022-12-18T16:45:30;19.87;;;12.03;;
18526;SDS011;9393;42.158;24.748;2022-12-18T16:48:34;18.03;;;11.33;;
18526;SDS011;9393;42.158;24.748;2022-12-18T16:51:40;21.27;;;13.23;;
18526;SDS011;9393;42.158;24.748;2022-12-18T16:54:44;25.97;;;16.63;;
18526;SDS011;9393;42.158;24.748;2022-12-18T16:57:48;23.40;;;14.87;;
18526;SDS011;9393;42.158;24.748;2022-12-18T17:00:52;68.80;;;45.40;;
18526;SDS011;9393;42.158;24.748;2022-12-18T17:03:57;24.53;;;13.13;;
18526;SDS011;9393;42.158;24.748;2022-12-18T17:07:03;42.93;;;33.13;;
18526;SDS011;9393;42.158;24.748;2022-12-18T17:10:07;29.13;;;20.23;;
18526;SDS011;9393;42.158;24.748;2022-12-18T17:13:12;30.57;;;16.23;;
18526;SDS011;9393;42.158;24.748;2022-12-18T17:16:16;28.43;;;18.13;;
18526;SDS011;9393;42.158;24.748;2022-12-18T17:19:21;51.53;;;33.50;;
18526;SDS011;9393;42.158;24.748;2022-12-18T17:22:26;37.20;;;20.33;;
18526;SDS011;9393;42.158;24.748;2022-12-18T17:25:30;25.77;;;16.40;;
18526;SDS011;9393;42.158;24.748;2022-12-18T17:28:34;31.03;;;17.13;;
18526;SDS011;9393;42.158;24.748;2022-12-18T17:31:38;25.53;;;14.67;;
18526;SDS011;9393;42.158;24.748;2022-12-18T17:34:42;30.37;;;16.67;;
18526;SDS011;9393;42.158;24.748;2022-12-18T17:37:47;27.53;;;16.53;;
18526;SDS011;9393;42.158;24.748;2022-12-18T17:40:51;28.73;;;16.03;;
18526;SDS011;9393;42.158;24.748;2022-12-18T17:43:56;62.40;;;37.93;;
18526;SDS011;9393;42.158;24.748;2022-12-18T17:47:01;39.07;;;25.73;;
18526;SDS011;9393;42.158;24.748;2022-12-18T17:50:07;34.80;;;22.90;;
18526;SDS011;9393;42.158;24.748;2022-12-18T17:53:13;23.03;;;15.17;;
18526;SDS011;9393;42.158;24.748;2022-12-18T17:56:19;29.73;;;18.33;;
18526;SDS011;9393;42.158;24.748;2022-12-18T17:59:24;35.80;;;22.23;;
18526;SDS011;9393;42.158;24.748;2022-12-18T18:02:28;54.50;;;31.33;;
18526;SDS011;9393;42.158;24.748;2022-12-18T18:05:32;30.57;;;20.00;;
18526;SDS011;9393;42.158;24.748;2022-12-18T18:08:38;20.50;;;13.33;;
18526;SDS011;9393;42.158;24.748;2022-12-18T18:11:42;14.23;;;8.97;;
18526;SDS011;9393;42.158;24.748;2022-12-18T18:15:04;13.67;;;7.50;;
18526;SDS011;9393;42.158;24.748;2022-12-18T18:18:09;13.80;;;8.40;;
18526;SDS011;9393;42.158;24.748;2022-12-18T18:21:15;13.13;;;9.13;;
18526;SDS011;9393;42.158;24.748;2022-12-18T18:24:21;12.63;;;7.80;;
18526;SDS011;9393;42.158;24.748;2022-12-18T18:27:26;21.97;;;12.00;;
18526;SDS011;9393;42.158;24.748;2022-12-18T18:30:37;17.13;;;10.47;;
18526;SDS011;9393;42.158;24.748;2022-12-18T18:33:42;17.07;;;9.70;;
18526;SDS011;9393;42.158;24.748;2022-12-18T18:36:46;48.73;;;23.10;;
18526;SDS011;9393;42.158;24.748;2022-12-18T18:39:51;63.73;;;31.27;;
18526;SDS011;9393;42.158;24.748;2022-12-18T18:42:57;37.10;;;18.00;;